Time;durP1;ratioP1;P1;durP2;ratioP2;P2;SDS_P1;SDS_P2;PMS_P1;PMS_P2;Temp;Humidity;BMP_temperature;BMP_pressure;BME280_temperature;BME280_humidity;BME280_pressure;Samples;Min_cycle;Max_cycle;Signal;HPM_P1;HPM_P2
2021/12/10 00:00:21;;;;;;;2.65;0.55;;;;;;;;;;5135558;27;20076;-71
2021/12/10 00:02:48;;;;;;;1.88;0.57;;;;;;;;;;5134960;27;20532;-72
2021/12/10 00:05:18;;;;;;;1.67;0.52;;;;;;;;;;5134562;27;20429;-71
2021/12/10 00:07:45;;;;;;;2.95;0.40;;;;;;;;;;5135264;27;20106;-72
2021/12/10 00:10:15;;;;;;;2.15;0.77;;;;;;;;;;5135102;27;20016;-72
2021/12/10 00:12:49;;;;;;;1.48;0.47;;;;;;;;;;5135075;27;20030;-72
2021/12/10 00:15:17;;;;;;;1.30;0.40;;;;;;;;;;5133750;27;20023;-71
2021/12/10 00:17:45;;;;;;;1.70;0.60;;;;;;;;;;5135408;27;20058;-72
2021/12/10 00:20:12;;;;;;;2.83;0.50;;;;;;;;;;5134805;27;20044;-72
2021/12/10 00:22:41;;;;;;;3.22;0.55;;;;;;;;;;5135124;27;20038;-71
2021/12/10 00:25:18;;;;;;;2.25;0.50;;;;;;;;;;5134202;27;20027;-72
2021/12/10 00:27:46;;;;;;;2.25;0.40;;;;;;;;;;5135012;27;20027;-71
2021/12/10 00:30:43;;;;;;;2.00;0.68;;;;;;;;;;5134578;27;20027;-72
2021/12/10 00:33:20;;;;;;;2.97;0.50;;;;;;;;;;5133524;27;20027;-72
2021/12/10 00:35:48;;;;;;;2.00;0.50;;;;;;;;;;5134593;27;20027;-71
2021/12/10 00:38:15;;;;;;;2.03;0.50;;;;;;;;;;5134485;27;20468;-72
2021/12/10 00:40:43;;;;;;;1.38;0.40;;;;;;;;;;5132861;27;20019;-72
2021/12/10 00:43:10;;;;;;;1.52;0.40;;;;;;;;;;5134169;27;20022;-72
2021/12/10 00:45:38;;;;;;;1.52;0.30;;;;;;;;;;5132661;27;20023;-72
2021/12/10 00:48:05;;;;;;;2.67;0.40;;;;;;;;;;5134299;27;20068;-71
2021/12/10 00:50:40;;;;;;;1.83;0.47;;;;;;;;;;5134171;27;20102;-72
2021/12/10 00:53:07;;;;;;;6.03;1.08;;;;;;;;;;5134428;27;20011;-71
2021/12/10 00:55:34;;;;;;;4.00;0.90;;;;;;;;;;5134128;27;20024;-71
2021/12/10 00:58:01;;;;;;;4.63;1.02;;;;;;;;;;5134202;27;20019;-70
2021/12/10 01:00:33;;;;;;;8.05;1.88;;;;;;;;;;5134358;27;20540;-71
2021/12/10 01:03:01;;;;;;;5.05;1.42;;;;;;;;;;5133834;27;20125;-73
2021/12/10 01:05:28;;;;;;;7.18;1.52;;;;;;;;;;5132733;27;20027;-72
2021/12/10 01:07:55;;;;;;;3.75;0.90;;;;;;;;;;5134065;27;20019;-71
2021/12/10 01:10:28;;;;;;;4.55;1.20;;;;;;;;;;5132573;27;20019;-71
2021/12/10 01:12:57;;;;;;;6.53;1.05;;;;;;;;;;5132541;27;20377;-71
2021/12/10 01:15:45;;;;;;;5.95;1.30;;;;;;;;;;5133930;27;20079;-71
2021/12/10 01:23:57;;;;;;;2.40;0.85;;;;;;;;;;5133996;27;20054;-71
2021/12/10 01:29:39;;;;;;;1.90;0.63;;;;;;;;;;5128608;27;20039;-72
2021/12/10 01:32:08;;;;;;;3.08;0.95;;;;;;;;;;5133742;27;20019;-72
2021/12/10 01:34:36;;;;;;;3.10;0.90;;;;;;;;;;5132413;27;20050;-70
2021/12/10 01:37:04;;;;;;;2.58;0.90;;;;;;;;;;5133546;27;20054;-71
2021/12/10 01:39:33;;;;;;;5.38;1.45;;;;;;;;;;5132640;27;20079;-70
2021/12/10 01:42:15;;;;;;;3.45;0.80;;;;;;;;;;5133458;27;20098;-70
2021/12/10 01:44:45;;;;;;;1.98;0.60;;;;;;;;;;5133761;27;20382;-70
2021/12/10 01:47:15;;;;;;;2.05;0.70;;;;;;;;;;5133309;28;20420;-68
2021/12/10 01:49:43;;;;;;;2.38;0.63;;;;;;;;;;5131918;28;20028;-68
2021/12/10 01:52:14;;;;;;;1.98;0.77;;;;;;;;;;5131881;28;20110;-70
2021/12/10 01:54:44;;;;;;;3.75;0.85;;;;;;;;;;5132013;28;20479;-70
2021/12/10 01:57:12;;;;;;;3.15;0.70;;;;;;;;;;5132049;28;20455;-70
2021/12/10 01:59:41;;;;;;;2.17;0.80;;;;;;;;;;5133163;28;20024;-70
2021/12/10 02:02:10;;;;;;;1.38;0.50;;;;;;;;;;5132915;28;20508;-70
2021/12/10 02:04:38;;;;;;;2.67;0.73;;;;;;;;;;5133086;28;20023;-70
2021/12/10 02:07:07;;;;;;;4.35;0.90;;;;;;;;;;5132876;28;20379;-69
2021/12/10 02:09:34;;;;;;;1.80;0.70;;;;;;;;;;5132965;28;20038;-70
2021/12/10 02:12:01;;;;;;;2.20;0.90;;;;;;;;;;5133333;28;20015;-70
2021/12/10 02:14:29;;;;;;;2.63;0.88;;;;;;;;;;5133205;28;20025;-69
2021/12/10 02:16:58;;;;;;;2.25;0.60;;;;;;;;;;5132976;28;20443;-69
2021/12/10 02:19:26;;;;;;;2.83;0.90;;;;;;;;;;5133032;28;20019;-70
2021/12/10 02:21:54;;;;;;;2.25;0.73;;;;;;;;;;5131591;28;20431;-69
2021/12/10 02:24:21;;;;;;;2.13;0.88;;;;;;;;;;5133278;28;20019;-69
2021/12/10 02:26:51;;;;;;;2.97;0.98;;;;;;;;;;5133157;27;20128;-69
2021/12/10 02:29:20;;;;;;;3.22;1.20;;;;;;;;;;5137025;27;20019;-69
2021/12/10 02:31:47;;;;;;;3.58;1.30;;;;;;;;;;5135594;27;20026;-69
2021/12/10 02:34:15;;;;;;;4.47;0.80;;;;;;;;;;5137030;27;20026;-69
2021/12/10 02:36:42;;;;;;;2.40;0.82;;;;;;;;;;5136591;27;20043;-69
2021/12/10 02:39:14;;;;;;;2.38;0.80;;;;;;;;;;5136734;27;20034;-69
2021/12/10 02:41:41;;;;;;;0.85;0.57;;;;;;;;;;5132465;27;20555;-69
2021/12/10 02:44:10;;;;;;;1.40;0.57;;;;;;;;;;5135185;27;20156;-69
2021/12/10 02:46:38;;;;;;;1.02;0.43;;;;;;;;;;5136519;27;20041;-69
2021/12/10 02:49:07;;;;;;;1.38;0.70;;;;;;;;;;5136492;27;20047;-69
2021/12/10 02:51:35;;;;;;;1.13;0.90;;;;;;;;;;5136088;27;20033;-70
2021/12/10 02:54:04;;;;;;;2.75;0.90;;;;;;;;;;5136083;27;20019;-69
2021/12/10 02:56:32;;;;;;;1.33;0.80;;;;;;;;;;5136091;27;20023;-69
2021/12/10 02:59:00;;;;;;;1.75;0.77;;;;;;;;;;5136199;27;20543;-69
2021/12/10 03:01:37;;;;;;;1.88;0.73;;;;;;;;;;5134793;27;20447;-69
2021/12/10 03:04:07;;;;;;;3.65;0.70;;;;;;;;;;5135930;27;20411;-69
2021/12/10 03:06:35;;;;;;;2.10;0.57;;;;;;;;;;5136125;27;20456;-69
2021/12/10 03:09:02;;;;;;;1.48;0.50;;;;;;;;;;5136127;27;20030;-70
2021/12/10 03:11:31;;;;;;;1.30;0.50;;;;;;;;;;5134866;27;20031;-69
2021/12/10 03:14:01;;;;;;;1.15;0.50;;;;;;;;;;5136012;27;20426;-70
2021/12/10 03:16:31;;;;;;;3.22;0.47;;;;;;;;;;5136370;27;20068;-69
2021/12/10 03:18:58;;;;;;;2.85;0.50;;;;;;;;;;5136142;27;20456;-69
2021/12/10 03:21:26;;;;;;;2.80;0.40;;;;;;;;;;5134648;27;20027;-69
2021/12/10 03:23:53;;;;;;;0.75;0.50;;;;;;;;;;5135969;27;20149;-69
2021/12/10 03:26:21;;;;;;;1.63;0.50;;;;;;;;;;5136111;27;20019;-69
2021/12/10 03:28:50;;;;;;;2.00;0.70;;;;;;;;;;5134552;27;20019;-70
2021/12/10 03:31:19;;;;;;;2.55;1.45;;;;;;;;;;5135809;27;20448;-69
2021/12/10 03:33:49;;;;;;;3.38;1.17;;;;;;;;;;5135963;27;20038;-69
2021/12/10 03:36:17;;;;;;;2.47;1.05;;;;;;;;;;5134566;27;20079;-69
2021/12/10 03:38:44;;;;;;;4.10;1.10;;;;;;;;;;5134448;27;20031;-69
2021/12/10 03:41:12;;;;;;;3.45;0.95;;;;;;;;;;5134505;27;20034;-69
2021/12/10 03:43:40;;;;;;;2.13;0.75;;;;;;;;;;5135447;27;20477;-68
2021/12/10 03:46:07;;;;;;;2.20;1.23;;;;;;;;;;5135643;27;20160;-68
2021/12/10 03:48:37;;;;;;;1.80;0.95;;;;;;;;;;5134178;27;20479;-68
2021/12/10 03:51:06;;;;;;;2.60;0.80;;;;;;;;;;5135560;27;20043;-68
2021/12/10 03:53:33;;;;;;;2.90;0.90;;;;;;;;;;5135638;27;20491;-68
2021/12/10 03:56:02;;;;;;;2.80;0.80;;;;;;;;;;5135249;27;20044;-69
2021/12/10 03:58:29;;;;;;;3.08;1.05;;;;;;;;;;5135449;27;20071;-69
2021/12/10 04:00:58;;;;;;;3.78;1.40;;;;;;;;;;5134925;27;20028;-70
2021/12/10 04:03:26;;;;;;;2.90;1.10;;;;;;;;;;5134885;27;20559;-69
2021/12/10 04:05:54;;;;;;;4.95;0.90;;;;;;;;;;5134916;27;20018;-69
2021/12/10 04:08:21;;;;;;;1.58;0.60;;;;;;;;;;5134981;27;20023;-69
2021/12/10 04:10:48;;;;;;;2.88;0.70;;;;;;;;;;5133264;27;20111;-68
2021/12/10 04:13:15;;;;;;;3.20;0.70;;;;;;;;;;5133280;27;20023;-69
2021/12/10 04:15:43;;;;;;;7.60;1.65;;;;;;;;;;5133130;27;20395;-68
2021/12/10 04:18:11;;;;;;;3.90;1.35;;;;;;;;;;5134609;27;20011;-69
2021/12/10 04:20:38;;;;;;;3.17;1.13;;;;;;;;;;5133036;27;20050;-68
2021/12/10 04:23:08;;;;;;;2.35;0.57;;;;;;;;;;5132859;27;20046;-69
2021/12/10 04:25:36;;;;;;;3.90;1.35;;;;;;;;;;5134318;27;20015;-68
2021/12/10 04:28:07;;;;;;;2.45;1.00;;;;;;;;;;5134205;27;20027;-68
2021/12/10 04:30:39;;;;;;;1.98;0.65;;;;;;;;;;5134188;27;20373;-68
2021/12/10 04:33:07;;;;;;;2.58;0.95;;;;;;;;;;5134540;27;20483;-68
2021/12/10 04:35:35;;;;;;;2.63;0.55;;;;;;;;;;5134096;27;20026;-68
2021/12/10 04:38:03;;;;;;;5.47;1.15;;;;;;;;;;5134152;27;20414;-68
2021/12/10 04:40:30;;;;;;;4.72;1.70;;;;;;;;;;5134218;27;20420;-68
2021/12/10 04:42:58;;;;;;;4.35;1.15;;;;;;;;;;5134221;27;20030;-69
2021/12/10 04:45:25;;;;;;;2.90;0.80;;;;;;;;;;5134279;27;20476;-69
2021/12/10 04:47:52;;;;;;;1.00;0.40;;;;;;;;;;5134099;27;20470;-68
2021/12/10 04:50:21;;;;;;;2.20;0.60;;;;;;;;;;5132185;27;20367;-69
2021/12/10 04:52:49;;;;;;;1.42;0.70;;;;;;;;;;5133925;27;20019;-69
2021/12/10 04:55:17;;;;;;;2.40;0.50;;;;;;;;;;5134100;27;20029;-69
2021/12/10 04:57:45;;;;;;;2.75;0.75;;;;;;;;;;5133721;27;20058;-70
2021/12/10 05:00:19;;;;;;;1.90;0.50;;;;;;;;;;5133817;27;20047;-70
2021/12/10 05:02:46;;;;;;;1.55;0.40;;;;;;;;;;5132115;27;20338;-69
2021/12/10 05:05:14;;;;;;;1.42;0.40;;;;;;;;;;5133665;27;20479;-69
2021/12/10 05:07:41;;;;;;;0.52;0.30;;;;;;;;;;5133322;27;20436;-69
2021/12/10 05:10:10;;;;;;;0.40;0.30;;;;;;;;;;5133689;27;20042;-68
2021/12/10 05:12:37;;;;;;;1.27;0.30;;;;;;;;;;5133671;27;20015;-68
2021/12/10 05:15:06;;;;;;;0.63;0.40;;;;;;;;;;5132078;27;20580;-68
2021/12/10 05:17:34;;;;;;;0.70;0.30;;;;;;;;;;5133144;27;20020;-68
2021/12/10 05:20:06;;;;;;;1.17;0.20;;;;;;;;;;5133359;27;20023;-69
2021/12/10 05:22:33;;;;;;;2.58;0.38;;;;;;;;;;5133619;27;20498;-69
2021/12/10 05:25:01;;;;;;;0.60;0.20;;;;;;;;;;5133423;27;20039;-68
2021/12/10 05:27:28;;;;;;;4.20;0.90;;;;;;;;;;5133222;27;20023;-68
2021/12/10 05:29:55;;;;;;;1.27;0.60;;;;;;;;;;5131949;27;20072;-69
2021/12/10 05:32:22;;;;;;;1.70;0.70;;;;;;;;;;5132208;27;20023;-69
2021/12/10 05:34:49;;;;;;;0.65;0.20;;;;;;;;;;5133540;27;20375;-69
2021/12/10 05:37:18;;;;;;;0.85;0.38;;;;;;;;;;5133311;27;20061;-69
2021/12/10 05:39:45;;;;;;;3.47;0.93;;;;;;;;;;5133617;27;20019;-70
2021/12/10 05:42:12;;;;;;;2.65;0.60;;;;;;;;;;5131936;27;20122;-69
2021/12/10 05:44:39;;;;;;;0.77;0.32;;;;;;;;;;5133486;27;20027;-69
2021/12/10 05:47:07;;;;;;;1.52;0.40;;;;;;;;;;5133471;28;20019;-70
2021/12/10 05:49:34;;;;;;;1.63;0.50;;;;;;;;;;5131270;28;20502;-69
2021/12/10 05:52:02;;;;;;;0.75;0.22;;;;;;;;;;5131248;28;20023;-68
2021/12/10 05:54:29;;;;;;;1.35;0.28;;;;;;;;;;5131412;28;20347;-69
2021/12/10 05:56:56;;;;;;;0.55;0.25;;;;;;;;;;5132732;28;20016;-68
2021/12/10 05:59:24;;;;;;;0.80;0.22;;;;;;;;;;5132887;28;20433;-68
2021/12/10 06:01:51;;;;;;;1.10;0.47;;;;;;;;;;5133425;27;20053;-68
2021/12/10 06:04:23;;;;;;;0.65;0.20;;;;;;;;;;5135394;27;20047;-70
2021/12/10 06:06:50;;;;;;;0.75;0.15;;;;;;;;;;5136841;27;20023;-70
2021/12/10 06:09:17;;;;;;;1.75;0.40;;;;;;;;;;5135543;27;20019;-71
2021/12/10 06:11:45;;;;;;;0.68;0.30;;;;;;;;;;5137347;27;20070;-69
2021/12/10 06:14:12;;;;;;;1.40;0.20;;;;;;;;;;5136913;27;20090;-68
2021/12/10 06:16:39;;;;;;;1.05;0.52;;;;;;;;;;5135912;27;20030;-68
2021/12/10 06:19:07;;;;;;;0.25;0.15;;;;;;;;;;5137374;27;20015;-69
2021/12/10 06:21:35;;;;;;;1.05;0.40;;;;;;;;;;5137295;27;20019;-69
2021/12/10 06:24:02;;;;;;;0.68;0.57;;;;;;;;;;5137178;27;20114;-69
2021/12/10 06:26:29;;;;;;;0.90;0.60;;;;;;;;;;5135456;27;20468;-69
2021/12/10 06:28:56;;;;;;;1.35;0.73;;;;;;;;;;5136822;27;20023;-69
2021/12/10 06:31:24;;;;;;;1.48;0.70;;;;;;;;;;5135413;27;20023;-69
2021/12/10 06:33:52;;;;;;;1.00;0.70;;;;;;;;;;5137051;27;20025;-69
2021/12/10 06:36:20;;;;;;;1.45;1.02;;;;;;;;;;5135619;27;20038;-69
2021/12/10 06:38:47;;;;;;;1.00;0.90;;;;;;;;;;5136818;27;20027;-69
2021/12/10 06:41:15;;;;;;;1.20;0.63;;;;;;;;;;5135389;27;20048;-69
2021/12/10 06:43:42;;;;;;;1.30;0.57;;;;;;;;;;5135397;27;20038;-70
2021/12/10 06:46:09;;;;;;;1.15;0.60;;;;;;;;;;5136038;27;20037;-71
2021/12/10 06:48:37;;;;;;;1.98;0.80;;;;;;;;;;5136943;27;20043;-71
2021/12/10 06:51:09;;;;;;;0.70;0.50;;;;;;;;;;5136846;27;20023;-72
2021/12/10 06:53:37;;;;;;;0.80;0.20;;;;;;;;;;5135603;27;20068;-71
2021/12/10 06:56:05;;;;;;;0.95;0.30;;;;;;;;;;5135215;27;20026;-71
2021/12/10 06:58:33;;;;;;;1.42;0.70;;;;;;;;;;5137043;27;20094;-71
2021/12/10 07:01:06;;;;;;;1.75;0.70;;;;;;;;;;5136543;27;20043;-70
2021/12/10 07:03:34;;;;;;;2.60;0.85;;;;;;;;;;5136553;27;20350;-71
2021/12/10 07:06:02;;;;;;;0.90;0.55;;;;;;;;;;5134972;27;20076;-70
2021/12/10 07:08:30;;;;;;;2.05;1.02;;;;;;;;;;5136146;27;20031;-70
2021/12/10 07:10:58;;;;;;;1.58;0.80;;;;;;;;;;5136564;27;20023;-70
2021/12/10 07:13:25;;;;;;;2.35;0.50;;;;;;;;;;5136930;27;20038;-68
2021/12/10 07:15:53;;;;;;;1.58;0.30;;;;;;;;;;5136680;27;20027;-69
2021/12/10 07:18:22;;;;;;;1.23;0.30;;;;;;;;;;5136277;27;20023;-69
2021/12/10 07:20:51;;;;;;;0.93;0.50;;;;;;;;;;5134984;27;20118;-69
2021/12/10 07:23:18;;;;;;;1.33;0.50;;;;;;;;;;5136664;27;20015;-69
2021/12/10 07:25:46;;;;;;;0.57;0.45;;;;;;;;;;5136508;27;20020;-69
2021/12/10 07:28:14;;;;;;;0.90;0.30;;;;;;;;;;5136240;27;20016;-69
2021/12/10 07:30:41;;;;;;;1.38;0.50;;;;;;;;;;5136157;27;20364;-69
2021/12/10 07:33:09;;;;;;;0.50;0.30;;;;;;;;;;5135863;27;20072;-69
2021/12/10 07:35:38;;;;;;;0.63;0.20;;;;;;;;;;5135508;27;20410;-70
2021/12/10 07:38:06;;;;;;;0.40;0.17;;;;;;;;;;5135717;27;20023;-69
2021/12/10 07:40:35;;;;;;;0.57;0.10;;;;;;;;;;5135614;27;20030;-69
2021/12/10 07:43:02;;;;;;;1.30;0.20;;;;;;;;;;5135471;27;20042;-69
2021/12/10 07:45:29;;;;;;;0.30;0.20;;;;;;;;;;5135768;27;20019;-69
2021/12/10 07:47:58;;;;;;;1.52;0.22;;;;;;;;;;5133941;27;20114;-69
2021/12/10 07:50:32;;;;;;;0.30;0.20;;;;;;;;;;5135122;27;20046;-69
2021/12/10 07:53:00;;;;;;;0.95;0.43;;;;;;;;;;5135522;27;20047;-69
2021/12/10 07:55:29;;;;;;;1.05;0.20;;;;;;;;;;5133670;27;20081;-70
2021/12/10 07:57:57;;;;;;;0.63;0.30;;;;;;;;;;5133591;27;20023;-70
2021/12/10 08:00:26;;;;;;;0.47;0.15;;;;;;;;;;5134970;27;20020;-69
2021/12/10 08:02:53;;;;;;;0.47;0.20;;;;;;;;;;5134851;27;20048;-69
2021/12/10 08:05:22;;;;;;;0.82;0.20;;;;;;;;;;5135045;27;20023;-70
2021/12/10 08:07:50;;;;;;;0.88;0.20;;;;;;;;;;5135036;27;20027;-69
2021/12/10 08:10:17;;;;;;;0.90;0.40;;;;;;;;;;5133638;27;20384;-70
2021/12/10 08:12:44;;;;;;;1.23;0.50;;;;;;;;;;5133692;27;20026;-70
2021/12/10 08:15:12;;;;;;;1.60;0.40;;;;;;;;;;5134951;27;20163;-69
2021/12/10 08:17:40;;;;;;;0.82;0.43;;;;;;;;;;5135070;27;20058;-69
2021/12/10 08:20:08;;;;;;;0.88;0.50;;;;;;;;;;5134917;27;20058;-70
2021/12/10 08:22:35;;;;;;;0.55;0.30;;;;;;;;;;5133528;27;20027;-69
2021/12/10 08:25:02;;;;;;;1.80;0.40;;;;;;;;;;5134219;27;20027;-71
2021/12/10 08:27:29;;;;;;;0.30;0.20;;;;;;;;;;5134491;27;20034;-70
2021/12/10 08:30:03;;;;;;;1.60;0.57;;;;;;;;;;5134694;27;20027;-71
2021/12/10 08:32:31;;;;;;;1.00;0.30;;;;;;;;;;5134546;27;20072;-70
2021/12/10 08:34:59;;;;;;;1.08;0.22;;;;;;;;;;5133146;27;20020;-70
2021/12/10 08:37:26;;;;;;;1.20;0.30;;;;;;;;;;5134413;27;20031;-70
2021/12/10 08:39:54;;;;;;;1.65;0.40;;;;;;;;;;5133022;27;20069;-71
2021/12/10 08:42:21;;;;;;;0.77;0.40;;;;;;;;;;5134286;27;20026;-71
2021/12/10 08:44:48;;;;;;;0.93;0.40;;;;;;;;;;5134538;27;20019;-71
2021/12/10 08:47:15;;;;;;;1.42;0.38;;;;;;;;;;5134519;27;20034;-72
2021/12/10 08:49:43;;;;;;;1.33;0.20;;;;;;;;;;5134476;27;20043;-71
2021/12/10 08:52:11;;;;;;;0.55;0.30;;;;;;;;;;5134344;27;20019;-71
2021/12/10 08:54:39;;;;;;;0.95;0.30;;;;;;;;;;5132883;27;20025;-71
2021/12/10 08:57:08;;;;;;;0.70;0.50;;;;;;;;;;5134204;27;20068;-71
2021/12/10 08:59:36;;;;;;;1.33;0.73;;;;;;;;;;5134286;27;20375;-70
2021/12/10 09:02:05;;;;;;;2.03;1.00;;;;;;;;;;5134083;27;20118;-71
2021/12/10 09:04:34;;;;;;;3.90;1.70;;;;;;;;;;5132932;27;20055;-71
2021/12/10 09:07:06;;;;;;;2.00;1.13;;;;;;;;;;5134169;27;20023;-71
2021/12/10 09:09:34;;;;;;;2.30;1.00;;;;;;;;;;5134023;27;20021;-70
2021/12/10 09:12:03;;;;;;;2.35;1.40;;;;;;;;;;5134131;27;20090;-70
2021/12/10 09:14:37;;;;;;;3.92;2.08;;;;;;;;;;5134395;27;20020;-70
2021/12/10 09:17:05;;;;;;;2.80;1.70;;;;;;;;;;5134210;27;20016;-71
2021/12/10 09:19:32;;;;;;;2.67;1.27;;;;;;;;;;5134380;27;20107;-72
2021/12/10 09:22:00;;;;;;;1.88;1.10;;;;;;;;;;5134007;27;20466;-71
2021/12/10 09:24:27;;;;;;;3.13;1.50;;;;;;;;;;5134245;27;20019;-71
2021/12/10 09:26:56;;;;;;;2.13;1.23;;;;;;;;;;5134162;27;20410;-71
2021/12/10 09:29:24;;;;;;;2.20;1.25;;;;;;;;;;5134075;27;20071;-70
2021/12/10 09:31:52;;;;;;;1.65;1.23;;;;;;;;;;5134192;27;20051;-71
2021/12/10 09:34:19;;;;;;;1.70;1.10;;;;;;;;;;5132435;27;20141;-69
2021/12/10 09:36:47;;;;;;;1.77;1.10;;;;;;;;;;5133282;27;20023;-70
2021/12/10 09:39:15;;;;;;;2.20;0.70;;;;;;;;;;5134366;27;20443;-69
2021/12/10 09:41:43;;;;;;;1.13;0.57;;;;;;;;;;5133608;27;20023;-69
2021/12/10 09:44:10;;;;;;;0.90;0.40;;;;;;;;;;5133758;27;20391;-70
2021/12/10 09:46:38;;;;;;;2.97;1.00;;;;;;;;;;5133722;27;20361;-69
2021/12/10 09:49:07;;;;;;;2.08;0.80;;;;;;;;;;5133736;28;20026;-70
2021/12/10 09:51:37;;;;;;;1.98;0.77;;;;;;;;;;5134129;28;20020;-70
2021/12/10 09:54:10;;;;;;;2.03;1.05;;;;;;;;;;5134014;28;20030;-70
2021/12/10 09:56:42;;;;;;;1.70;1.23;;;;;;;;;;5134079;28;20103;-70
2021/12/10 09:59:10;;;;;;;2.50;1.38;;;;;;;;;;5132129;28;20402;-71
2021/12/10 10:01:42;;;;;;;1.40;0.90;;;;;;;;;;5132347;28;20356;-71
2021/12/10 10:04:10;;;;;;;2.50;1.20;;;;;;;;;;5133367;28;20071;-70
2021/12/10 10:06:40;;;;;;;3.25;2.47;;;;;;;;;;5131877;28;20447;-70
2021/12/10 10:09:08;;;;;;;8.55;7.75;;;;;;;;;;5133713;28;20022;-70
2021/12/10 10:11:36;;;;;;;10.68;9.73;;;;;;;;;;5133671;28;20144;-71
2021/12/10 10:14:05;;;;;;;6.60;6.00;;;;;;;;;;5133287;28;20015;-71
2021/12/10 10:16:34;;;;;;;4.93;3.72;;;;;;;;;;5133643;28;20055;-71
2021/12/10 10:19:05;;;;;;;2.55;1.13;;;;;;;;;;5133399;28;20414;-71
2021/12/10 10:21:35;;;;;;;1.00;0.90;;;;;;;;;;5133173;28;20027;-70
2021/12/10 10:24:02;;;;;;;0.70;0.50;;;;;;;;;;5133326;28;20444;-70
2021/12/10 10:26:33;;;;;;;0.60;0.50;;;;;;;;;;5133453;28;20495;-70
2021/12/10 10:29:01;;;;;;;0.45;0.30;;;;;;;;;;5133372;28;20019;-70
2021/12/10 10:31:28;;;;;;;0.90;0.47;;;;;;;;;;5133267;28;20041;-70
2021/12/10 10:33:57;;;;;;;0.40;0.20;;;;;;;;;;5132373;28;20047;-70
2021/12/10 10:36:26;;;;;;;0.40;0.10;;;;;;;;;;5133516;28;20019;-70
2021/12/10 10:38:55;;;;;;;0.90;0.40;;;;;;;;;;5131984;28;20050;-70
2021/12/10 10:41:23;;;;;;;0.80;0.50;;;;;;;;;;5133270;28;20451;-70
2021/12/10 10:43:51;;;;;;;0.90;0.20;;;;;;;;;;5133188;28;20097;-70
2021/12/10 10:46:18;;;;;;;2.63;0.60;;;;;;;;;;5133140;28;20047;-70
2021/12/10 10:48:50;;;;;;;0.77;0.40;;;;;;;;;;5133329;27;20031;-70
2021/12/10 10:51:19;;;;;;;2.13;1.17;;;;;;;;;;5137144;27;20026;-70
2021/12/10 10:53:51;;;;;;;1.13;0.60;;;;;;;;;;5135472;27;20030;-70
2021/12/10 10:56:30;;;;;;;0.55;0.20;;;;;;;;;;5137439;27;20020;-71
2021/12/10 10:59:01;;;;;;;0.47;0.30;;;;;;;;;;5137103;27;20024;-71
2021/12/10 11:01:48;;;;;;;0.00;0.00;;;;;;;;;;5136849;27;20121;-70
2021/12/10 11:04:25;;;;;;;0.40;0.20;;;;;;;;;;5135089;27;20046;-71
2021/12/10 11:06:54;;;;;;;0.15;0.10;;;;;;;;;;5136649;27;20517;-71
2021/12/10 11:09:23;;;;;;;0.45;0.10;;;;;;;;;;5135296;27;20046;-71
2021/12/10 11:11:58;;;;;;;0.20;0.03;;;;;;;;;;5134946;27;20027;-70
2021/12/10 11:14:38;;;;;;;0.10;0.10;;;;;;;;;;5136440;27;20011;-70
2021/12/10 11:17:05;;;;;;;;;;;;;;;;;;5137052;27;20015;-70
2021/12/10 11:19:32;;;;;;;3.10;0.10;;;;;;;;;;5136597;27;19903;-71
2021/12/10 11:22:02;;;;;;;0.57;0.10;;;;;;;;;;5136639;27;20038;-71
2021/12/10 11:24:43;;;;;;;0.65;0.10;;;;;;;;;;5136755;27;20076;-70
2021/12/10 11:27:30;;;;;;;0.10;0.10;;;;;;;;;;5134839;27;20027;-70
2021/12/10 11:29:57;;;;;;;1.75;0.20;;;;;;;;;;5128789;27;20044;-70
2021/12/10 11:32:27;;;;;;;0.43;0.00;;;;;;;;;;5135875;27;20019;-70
2021/12/10 11:34:57;;;;;;;0.30;0.28;;;;;;;;;;5134519;27;20027;-70
2021/12/10 11:37:42;;;;;;;0.40;0.10;;;;;;;;;;5136148;27;20091;-70
2021/12/10 11:40:22;;;;;;;0.70;0.30;;;;;;;;;;5134621;27;20441;-70
2021/12/10 11:42:56;;;;;;;;;;;;;;;;;;5136371;27;20150;-70
2021/12/10 11:45:42;;;;;;;1.00;0.20;;;;;;;;;;5134606;27;20241;-70
2021/12/10 11:48:12;;;;;;;0.43;0.10;;;;;;;;;;5134356;27;20066;-70
2021/12/10 11:50:59;;;;;;;0.20;0.10;;;;;;;;;;5136145;27;20011;-70
2021/12/10 11:53:34;;;;;;;0.20;0.10;;;;;;;;;;5135610;27;20019;-70
2021/12/10 11:56:05;;;;;;;0.25;0.13;;;;;;;;;;5134101;27;20426;-70
2021/12/10 11:58:32;;;;;;;0.08;0.00;;;;;;;;;;5135590;27;20499;-70
2021/12/10 12:00:59;;;;;;;0.13;0.10;;;;;;;;;;5133085;27;20027;-70
2021/12/10 12:03:31;;;;;;;0.10;0.08;;;;;;;;;;5135318;27;20165;-70
2021/12/10 12:05:59;;;;;;;0.38;0.00;;;;;;;;;;5135293;27;20043;-71
2021/12/10 12:08:26;;;;;;;0.13;0.10;;;;;;;;;;5134049;27;20149;-70
2021/12/10 12:10:56;;;;;;;0.25;0.10;;;;;;;;;;5135332;27;20102;-71
2021/12/10 12:13:34;;;;;;;0.32;0.20;;;;;;;;;;5133974;27;20023;-70
2021/12/10 12:16:01;;;;;;;0.60;0.10;;;;;;;;;;5135158;27;20365;-71
2021/12/10 12:18:29;;;;;;;0.77;0.00;;;;;;;;;;5133745;27;20118;-70
2021/12/10 12:20:57;;;;;;;0.40;0.08;;;;;;;;;;5134968;27;20031;-70
2021/12/10 12:26:15;;;;;;;0.85;0.10;;;;;;;;;;5134958;27;20045;-70
2021/12/10 12:28:52;;;;;;;0.17;0.00;;;;;;;;;;5134733;27;20023;-70
2021/12/10 12:31:45;;;;;;;0.28;0.05;;;;;;;;;;5134775;27;20030;-70
2021/12/10 12:34:15;;;;;;;0.95;0.10;;;;;;;;;;5132878;27;20377;-70
2021/12/10 12:36:51;;;;;;;1.02;0.10;;;;;;;;;;5134662;27;20029;-70
2021/12/10 12:39:50;;;;;;;0.82;0.10;;;;;;;;;;5134770;27;20020;-70
2021/12/10 12:42:31;;;;;;;0.10;0.00;;;;;;;;;;5099716;27;20127;-69
2021/12/10 12:45:00;;;;;;;0.00;0.00;;;;;;;;;;5133345;27;20030;-70
2021/12/10 12:47:38;;;;;;;0.10;0.10;;;;;;;;;;5133162;27;20031;-70
2021/12/10 12:50:07;;;;;;;0.57;0.10;;;;;;;;;;5133219;27;20046;-70
2021/12/10 12:52:39;;;;;;;0.17;0.00;;;;;;;;;;5133147;27;20046;-70
2021/12/10 12:55:09;;;;;;;1.30;0.20;;;;;;;;;;5134613;27;20019;-70
2021/12/10 12:57:38;;;;;;;1.98;0.10;;;;;;;;;;5134449;27;20034;-70
2021/12/10 13:00:07;;;;;;;0.10;0.00;;;;;;;;;;5134713;27;20027;-70
2021/12/10 13:02:34;;;;;;;0.20;0.10;;;;;;;;;;5133911;27;20061;-71
2021/12/10 13:05:04;;;;;;;0.35;0.13;;;;;;;;;;5132778;27;20026;-70
2021/12/10 13:07:32;;;;;;;1.13;0.10;;;;;;;;;;5134452;27;20034;-70
2021/12/10 13:10:03;;;;;;;1.13;0.10;;;;;;;;;;5134259;27;20031;-70
2021/12/10 13:12:49;;;;;;;0.28;0.00;;;;;;;;;;5133693;27;20103;-73
2021/12/10 13:15:26;;;;;;;0.90;0.20;;;;;;;;;;5132633;27;20365;-70
2021/12/10 13:17:58;;;;;;;0.57;0.10;;;;;;;;;;5134037;27;20414;-70
2021/12/10 13:20:27;;;;;;;0.57;0.08;;;;;;;;;;5132593;27;20023;-70
2021/12/10 13:22:56;;;;;;;1.38;0.10;;;;;;;;;;5133921;27;20053;-70
2021/12/10 13:25:25;;;;;;;1.00;0.10;;;;;;;;;;5134276;27;20054;-70
2021/12/10 13:27:53;;;;;;;1.10;0.10;;;;;;;;;;5132345;27;20369;-71
2021/12/10 13:30:31;;;;;;;0.73;0.20;;;;;;;;;;5132647;27;20015;-70
2021/12/10 13:32:58;;;;;;;0.98;0.10;;;;;;;;;;5133776;27;20039;-70
2021/12/10 13:35:27;;;;;;;0.57;0.10;;;;;;;;;;5132453;27;20068;-70
2021/12/10 13:37:56;;;;;;;1.48;0.10;;;;;;;;;;5133676;27;20019;-70
2021/12/10 13:40:24;;;;;;;1.13;0.28;;;;;;;;;;5132422;27;20038;-71
2021/12/10 13:42:51;;;;;;;0.55;0.10;;;;;;;;;;5133858;27;20019;-71
2021/12/10 13:45:21;;;;;;;0.52;0.25;;;;;;;;;;5132281;27;20118;-71
2021/12/10 13:47:53;;;;;;;0.80;0.20;;;;;;;;;;5133475;27;20015;-71
2021/12/10 13:50:24;;;;;;;1.35;0.10;;;;;;;;;;5132223;28;20023;-70
2021/12/10 13:52:53;;;;;;;0.98;0.10;;;;;;;;;;5133695;28;20023;-71
2021/12/10 13:55:25;;;;;;;0.43;0.10;;;;;;;;;;5132315;28;20030;-71
2021/12/10 13:58:10;;;;;;;0.88;0.10;;;;;;;;;;5133587;28;20027;-71
2021/12/10 14:00:39;;;;;;;1.60;0.10;;;;;;;;;;5133601;28;20023;-71
2021/12/10 14:03:06;;;;;;;0.88;0.20;;;;;;;;;;5131836;28;20047;-70
2021/12/10 14:05:37;;;;;;;0.70;0.10;;;;;;;;;;5132053;28;20027;-71
2021/12/10 14:08:09;;;;;;;1.33;0.20;;;;;;;;;;5133451;28;20391;-70
2021/12/10 14:10:39;;;;;;;0.30;0.10;;;;;;;;;;5133916;28;20475;-71
2021/12/10 14:13:09;;;;;;;0.32;0.10;;;;;;;;;;5133337;28;20383;-70
2021/12/10 14:15:46;;;;;;;0.30;0.10;;;;;;;;;;5133332;28;20049;-71
2021/12/10 14:18:20;;;;;;;1.25;0.55;;;;;;;;;;5131995;28;20080;-71
2021/12/10 14:20:59;;;;;;;1.45;0.10;;;;;;;;;;5133312;28;20023;-71
2021/12/10 14:23:32;;;;;;;1.05;0.17;;;;;;;;;;5133126;27;20127;-70
2021/12/10 14:26:03;;;;;;;1.58;0.10;;;;;;;;;;5137408;27;20023;-71
2021/12/10 14:28:29;;;;;;;;;;;;;;;;;;5136274;27;20459;-71
2021/12/10 14:30:57;;;;;;;0.52;0.10;;;;;;;;;;5136059;27;19908;-71
2021/12/10 14:33:29;;;;;;;0.88;0.10;;;;;;;;;;5135734;27;20031;-71
2021/12/10 14:36:05;;;;;;;1.92;0.75;;;;;;;;;;5135844;27;20066;-70
2021/12/10 14:38:52;;;;;;;0.47;0.10;;;;;;;;;;5135625;27;20027;-71
2021/12/10 14:41:35;;;;;;;1.25;0.15;;;;;;;;;;5137213;27;20034;-70
2021/12/10 14:44:02;;;;;;;0.82;0.20;;;;;;;;;;5137065;27;20072;-71
2021/12/10 14:46:40;;;;;;;1.05;0.15;;;;;;;;;;5135621;27;20035;-71
2021/12/10 14:49:10;;;;;;;0.43;0.10;;;;;;;;;;5135519;27;20023;-71
2021/12/10 14:51:38;;;;;;;1.75;0.20;;;;;;;;;;5136828;27;20015;-70
2021/12/10 14:54:15;;;;;;;3.20;0.22;;;;;;;;;;5136709;27;20027;-71
2021/12/10 14:57:01;;;;;;;1.15;0.30;;;;;;;;;;5136773;27;20102;-71
2021/12/10 14:59:39;;;;;;;1.02;0.17;;;;;;;;;;5135230;27;20031;-71
2021/12/10 15:02:11;;;;;;;0.43;0.05;;;;;;;;;;5136543;27;20076;-70
2021/12/10 15:04:46;;;;;;;1.13;0.20;;;;;;;;;;5136447;27;20447;-70
2021/12/10 15:07:13;;;;;;;1.35;0.22;;;;;;;;;;5136528;27;20087;-70
2021/12/10 15:10:07;;;;;;;0.40;0.10;;;;;;;;;;5136429;27;20011;-71